createdAt,value
2019-04-04T00:01:29.235Z,8.57
2019-04-04T00:03:57.728Z,9.17
2019-04-04T00:06:27.017Z,9.93
2019-04-04T00:08:56.400Z,8.93
2019-04-04T00:11:24.861Z,8.37
2019-04-04T00:13:53.438Z,8.30
2019-04-04T00:16:21.914Z,9.30
2019-04-04T00:18:50.432Z,10.20
2019-04-04T00:21:18.891Z,8.80
2019-04-04T00:23:47.361Z,9.87
2019-04-04T00:26:15.923Z,8.83
2019-04-04T00:28:46.059Z,9.80
2019-04-04T00:31:14.568Z,10.13
2019-04-04T00:33:43.022Z,9.27
2019-04-04T00:36:11.469Z,9.60
2019-04-04T00:38:39.952Z,9.77
2019-04-04T00:41:08.414Z,8.67
2019-04-04T00:43:36.997Z,9.57
2019-04-04T00:46:05.469Z,11.70
2019-04-04T00:48:34.175Z,9.40
2019-04-04T00:51:03.710Z,8.83
2019-04-04T00:53:32.172Z,10.47
2019-04-04T00:56:00.727Z,8.43
2019-04-04T00:58:29.178Z,9.40
2019-04-04T01:00:57.707Z,10.10
2019-04-04T01:03:26.171Z,9.77
2019-04-04T01:05:54.659Z,8.60
2019-04-04T01:08:23.112Z,9.97
2019-04-04T01:10:51.563Z,9.43
2019-04-04T01:13:21.209Z,10.23
2019-04-04T01:15:50.299Z,10.30
2019-04-04T01:18:18.755Z,10.73
2019-04-04T01:20:47.220Z,10.43
2019-04-04T01:23:15.738Z,9.67
2019-04-04T01:25:44.185Z,9.50
2019-04-04T01:28:12.638Z,11.67
2019-04-04T01:30:41.708Z,9.90
2019-04-04T01:33:11.276Z,9.97
2019-04-04T01:35:39.875Z,9.90
2019-04-04T01:38:08.350Z,9.33
2019-04-04T01:40:36.802Z,9.33
2019-04-04T01:43:05.237Z,9.80
2019-04-04T01:45:33.711Z,10.13
2019-04-04T01:48:02.184Z,9.77
2019-04-04T01:50:30.666Z,10.23
2019-04-04T01:52:59.885Z,10.03
2019-04-04T01:55:28.667Z,10.40
2019-04-04T01:57:57.126Z,8.93
2019-04-04T02:00:25.591Z,9.47
2019-04-04T02:02:54.052Z,9.73
2019-04-04T02:05:22.591Z,9.13
2019-04-04T02:07:51.133Z,9.30
2019-04-04T02:10:19.603Z,10.73
2019-04-04T02:12:48.066Z,9.53
2019-04-04T02:15:16.589Z,9.30
2019-04-04T02:17:45.044Z,9.43
2019-04-04T02:20:13.671Z,9.20
2019-04-04T02:22:42.127Z,10.20
2019-04-04T02:25:11.014Z,9.30
2019-04-04T02:27:39.553Z,10.17
2019-04-04T02:30:14.614Z,10.07
2019-04-04T02:32:39.471Z,9.67
2019-04-04T02:35:10.805Z,10.03
2019-04-04T02:37:38.471Z,9.23
2019-04-04T02:40:09.044Z,8.83
2019-04-04T02:42:38.890Z,9.13
2019-04-04T02:45:08.574Z,10.33
2019-04-04T02:47:37.091Z,10.83
2019-04-04T02:50:07.794Z,8.90
2019-04-04T02:52:36.310Z,8.30
2019-04-04T02:55:05.972Z,8.70
2019-04-04T02:57:34.435Z,9.73
2019-04-04T03:00:03.770Z,9.57
2019-04-04T03:02:36.162Z,9.40
2019-04-04T03:05:03.239Z,8.33
2019-04-04T03:07:31.799Z,8.87
2019-04-04T03:10:00.403Z,8.77
2019-04-04T03:12:28.966Z,8.27
2019-04-04T03:14:57.457Z,9.03
2019-04-04T03:17:25.922Z,9.00
2019-04-04T03:19:54.455Z,8.73
2019-04-04T03:22:24.606Z,8.73
2019-04-04T03:24:53.082Z,8.33
2019-04-04T03:27:25.752Z,9.00
2019-04-04T03:29:51.762Z,8.53
2019-04-04T03:32:20.266Z,9.27
2019-04-04T03:34:51.275Z,9.10
2019-04-04T03:37:19.002Z,8.20
2019-04-04T03:39:51.760Z,8.53
2019-04-04T03:42:17.623Z,9.60
2019-04-04T03:44:46.152Z,8.33
2019-04-04T03:47:14.598Z,9.23
2019-04-04T03:49:43.161Z,8.83
2019-04-04T03:52:11.690Z,9.33
2019-04-04T03:54:40.481Z,9.43
2019-04-04T03:57:12.240Z,8.73
2019-04-04T03:59:39.109Z,8.70
2019-04-04T04:02:07.674Z,8.50
2019-04-04T04:04:36.976Z,9.40
2019-04-04T04:07:05.432Z,9.23
2019-04-04T04:09:33.896Z,9.47
2019-04-04T04:12:02.440Z,8.80
2019-04-04T04:14:31.007Z,8.50
2019-04-04T04:16:59.503Z,9.27
2019-04-04T04:19:30.962Z,9.60
2019-04-04T04:21:58.206Z,7.90
2019-04-04T04:24:29.751Z,9.10
2019-04-04T04:26:56.856Z,9.70
2019-04-04T04:29:29.378Z,9.80
2019-04-04T04:31:55.504Z,9.17
2019-04-04T04:34:24.038Z,9.77
2019-04-04T04:36:52.576Z,10.17
2019-04-04T04:39:21.164Z,9.47
2019-04-04T04:41:52.987Z,10.67
2019-04-04T04:44:19.867Z,8.23
2019-04-04T04:46:50.432Z,9.57
2019-04-04T04:49:18.577Z,8.53
2019-04-04T04:51:47.135Z,8.70
2019-04-04T04:54:15.596Z,9.10
2019-04-04T04:56:44.047Z,8.33
2019-04-04T04:59:13.238Z,8.53
2019-04-04T05:01:42.602Z,8.40
2019-04-04T05:04:11.083Z,8.13
2019-04-04T05:06:39.533Z,8.80
2019-04-04T05:09:07.990Z,9.20
2019-04-04T05:11:36.564Z,9.53
2019-04-04T05:14:05.027Z,8.60
2019-04-04T05:16:33.542Z,9.13
2019-04-04T05:19:02.003Z,8.73
2019-04-04T05:21:33.841Z,9.53
2019-04-04T05:24:00.720Z,8.63
2019-04-04T05:26:29.175Z,9.03
2019-04-04T05:28:57.626Z,8.67
2019-04-04T05:31:26.118Z,7.97
2019-04-04T05:33:54.656Z,8.30
2019-04-04T05:36:23.732Z,8.47
2019-04-04T05:38:52.186Z,9.53
2019-04-04T05:41:20.645Z,8.37
2019-04-04T05:43:49.177Z,9.27
2019-04-04T05:46:19.038Z,9.83
2019-04-04T05:48:47.882Z,8.50
2019-04-04T05:51:16.491Z,8.40
2019-04-04T05:53:45.018Z,8.83
2019-04-04T05:56:15.161Z,10.00
2019-04-04T05:58:43.745Z,8.50
2019-04-04T06:01:16.243Z,8.80
2019-04-04T06:03:47.067Z,8.50
2019-04-04T06:06:14.948Z,10.10
2019-04-04T06:08:43.531Z,9.03
2019-04-04T06:11:12.916Z,8.63
2019-04-04T06:13:41.375Z,9.10
2019-04-04T06:16:09.899Z,8.73
2019-04-04T06:18:38.354Z,9.97
2019-04-04T06:21:06.883Z,8.83
2019-04-04T06:23:35.359Z,9.03
2019-04-04T06:26:06.327Z,12.03
2019-04-04T06:28:34.103Z,10.03
2019-04-04T06:31:02.576Z,8.60
2019-04-04T06:33:31.061Z,9.77
2019-04-04T06:35:59.596Z,10.30
2019-04-04T06:38:28.047Z,9.23
2019-04-04T06:40:56.502Z,9.03
2019-04-04T06:43:24.993Z,9.70
2019-04-04T06:45:53.442Z,9.53
2019-04-04T06:48:22.065Z,9.57
2019-04-04T06:50:51.099Z,9.93
2019-04-04T06:53:21.856Z,9.23
2019-04-04T06:55:49.802Z,9.93
2019-04-04T06:58:18.293Z,9.63
2019-04-04T07:00:49.918Z,10.07
2019-04-04T07:03:16.923Z,9.60
2019-04-04T07:05:51.336Z,9.27
2019-04-04T07:08:19.810Z,10.17
2019-04-04T07:10:57.328Z,9.90
2019-04-04T07:13:21.890Z,10.63
2019-04-04T07:16:05.476Z,10.10
2019-04-04T07:18:18.914Z,10.03
2019-04-04T07:20:48.280Z,11.10
2019-04-04T07:23:17.555Z,9.63
2019-04-04T07:25:46.027Z,11.13
2019-04-04T07:28:14.490Z,10.50
2019-04-04T07:30:42.941Z,9.73
2019-04-04T07:33:12.681Z,9.77
2019-04-04T07:35:41.652Z,10.67
2019-04-04T07:38:10.104Z,10.87
2019-04-04T07:40:38.567Z,9.23
2019-04-04T07:43:08.636Z,10.20
2019-04-04T07:45:37.370Z,10.53
2019-04-04T07:48:05.912Z,10.37
2019-04-04T07:50:34.384Z,10.30
2019-04-04T07:53:04.844Z,10.60
2019-04-04T07:55:33.700Z,10.40
2019-04-04T07:58:02.232Z,10.60
2019-04-04T08:00:50.666Z,14.30
2019-04-04T08:03:19.142Z,11.00
2019-04-04T08:05:47.646Z,11.07
2019-04-04T08:08:16.175Z,13.30
2019-04-04T08:10:44.711Z,10.80
2019-04-04T08:13:13.237Z,10.23
2019-04-04T08:15:41.723Z,10.47
2019-04-04T08:18:10.221Z,10.50
2019-04-04T08:20:38.694Z,10.33
2019-04-04T08:23:07.238Z,10.87
2019-04-04T08:25:35.711Z,10.77
2019-04-04T08:28:04.355Z,10.97
2019-04-04T08:30:32.921Z,11.47
2019-04-04T08:33:01.389Z,10.70
2019-04-04T08:35:29.924Z,10.30
2019-04-04T08:37:58.468Z,11.73
2019-04-04T08:40:26.946Z,11.23
2019-04-04T08:42:55.415Z,11.43
2019-04-04T08:45:23.918Z,10.63
2019-04-04T08:47:52.442Z,11.50
2019-04-04T08:50:20.908Z,11.23
2019-04-04T08:52:49.447Z,11.77
2019-04-04T08:55:17.923Z,11.20
2019-04-04T08:57:51.870Z,12.03
2019-04-04T09:00:20.457Z,10.73
2019-04-04T09:02:49.026Z,11.57
2019-04-04T09:05:17.487Z,11.20
2019-04-04T09:07:46.015Z,11.77
2019-04-04T09:10:14.553Z,11.63
2019-04-04T09:12:43.018Z,10.30
2019-04-04T09:15:11.918Z,12.27
2019-04-04T09:17:40.382Z,12.00
2019-04-04T09:20:09.945Z,11.83
2019-04-04T09:22:40.891Z,11.90
2019-04-04T09:25:10.686Z,11.27
2019-04-04T09:27:39.424Z,11.03
2019-04-04T09:30:08.626Z,12.43
2019-04-04T09:32:37.185Z,12.13
2019-04-04T09:35:07.566Z,11.57
2019-04-04T09:37:36.032Z,12.20
2019-04-04T09:40:07.427Z,11.20
2019-04-04T09:42:35.954Z,11.60
2019-04-04T09:45:07.482Z,11.50
2019-04-04T09:47:35.957Z,12.07
2019-04-04T09:50:07.503Z,11.80
2019-04-04T09:52:35.958Z,12.20
2019-04-04T09:55:07.187Z,12.23
2019-04-04T09:57:35.710Z,12.23
2019-04-04T10:00:16.249Z,12.60
2019-04-04T10:02:44.954Z,13.03
2019-04-04T10:05:14.854Z,11.03
2019-04-04T10:07:43.351Z,12.30
2019-04-04T10:10:13.523Z,11.47
2019-04-04T10:12:41.990Z,12.40
2019-04-04T10:15:10.880Z,13.73
2019-04-04T10:17:39.338Z,12.30
2019-04-04T10:20:08.502Z,11.30
2019-04-04T10:22:36.965Z,12.27
2019-04-04T10:25:06.120Z,11.47
2019-04-04T10:27:34.623Z,11.13
2019-04-04T10:30:04.593Z,12.37
2019-04-04T10:32:33.058Z,12.77
2019-04-04T10:35:01.522Z,12.77
2019-04-04T10:37:30.064Z,12.33
2019-04-04T10:39:58.563Z,10.97
2019-04-04T10:42:27.017Z,11.70
2019-04-04T10:44:55.476Z,12.00
2019-04-04T10:47:23.972Z,12.73
2019-04-04T10:49:52.436Z,12.00
2019-04-04T10:52:20.900Z,12.83
2019-04-04T10:54:49.370Z,11.90
2019-04-04T10:57:17.829Z,11.27
2019-04-04T10:59:46.285Z,12.77
2019-04-04T11:02:14.788Z,11.47
2019-04-04T11:04:43.331Z,12.20
2019-04-04T11:07:11.859Z,12.80
2019-04-04T11:09:42.137Z,12.57
2019-04-04T11:12:10.588Z,12.17
2019-04-04T11:14:39.091Z,12.60
2019-04-04T11:17:07.568Z,12.07
2019-04-04T11:19:36.031Z,11.90
2019-04-04T11:22:04.638Z,12.83
2019-04-04T11:24:33.355Z,14.17
2019-04-04T11:27:02.443Z,12.53
2019-04-04T11:29:30.974Z,12.00
2019-04-04T11:31:59.800Z,13.33
2019-04-04T11:34:28.254Z,13.23
2019-04-04T11:36:56.723Z,12.20
2019-04-04T11:39:25.199Z,11.87
2019-04-04T11:41:53.662Z,12.20
2019-04-04T11:44:22.132Z,12.80
2019-04-04T11:46:50.628Z,13.07
2019-04-04T11:49:19.086Z,13.63
2019-04-04T11:51:47.551Z,13.10
2019-04-04T11:54:16.054Z,12.90
2019-04-04T11:56:44.572Z,11.73
2019-04-04T11:59:13.030Z,13.73
2019-04-04T12:01:43.203Z,12.30
2019-04-04T12:04:11.690Z,15.10
2019-04-04T12:06:40.168Z,14.03
2019-04-04T12:09:28.076Z,14.23
2019-04-04T12:11:56.542Z,13.87
2019-04-04T12:14:25.065Z,13.57
2019-04-04T12:16:53.607Z,14.00
2019-04-04T12:19:22.072Z,13.17
2019-04-04T12:21:50.608Z,13.53
2019-04-04T12:24:19.183Z,13.90
2019-04-04T12:26:47.639Z,13.90
2019-04-04T12:29:16.155Z,13.37
2019-04-04T12:31:44.719Z,13.60
2019-04-04T12:34:13.176Z,15.03
2019-04-04T12:36:41.628Z,14.13
2019-04-04T12:39:10.127Z,13.37
2019-04-04T12:41:38.579Z,13.80
2019-04-04T12:44:07.037Z,13.53
2019-04-04T12:46:35.516Z,12.60
2019-04-04T12:49:11.319Z,13.63
2019-04-04T12:51:39.809Z,13.13
2019-04-04T12:54:08.266Z,12.97
2019-04-04T12:56:36.726Z,13.47
2019-04-04T12:59:05.565Z,14.70
2019-04-04T13:01:34.021Z,13.93
2019-04-04T13:04:02.517Z,14.10
2019-04-04T13:06:30.982Z,14.23
2019-04-04T13:08:59.443Z,14.60
2019-04-04T13:11:27.950Z,14.13
2019-04-04T13:13:56.426Z,14.10
2019-04-04T13:16:24.901Z,13.78
2019-04-04T13:18:53.408Z,13.50
2019-04-04T13:21:21.874Z,12.80
2019-04-04T13:23:50.343Z,13.13
2019-04-04T13:26:18.840Z,12.90
2019-04-04T13:28:47.369Z,13.17
2019-04-04T13:31:15.917Z,14.57
2019-04-04T13:33:44.508Z,13.40
2019-04-04T13:36:13.033Z,13.70
2019-04-04T13:38:41.518Z,14.00
2019-04-04T13:41:21.366Z,13.10
2019-04-04T13:43:40.175Z,13.37
2019-04-04T13:46:10.978Z,13.13
2019-04-04T13:48:39.326Z,13.13
2019-04-04T13:51:07.856Z,11.87
2019-04-04T13:53:36.327Z,12.80
2019-04-04T13:56:05.089Z,12.57
2019-04-04T13:58:33.539Z,12.50
2019-04-04T14:01:02.001Z,13.10
2019-04-04T14:03:42.525Z,13.50
2019-04-04T14:06:11.038Z,12.97
2019-04-04T14:08:40.142Z,13.23
2019-04-04T14:11:08.780Z,12.93
2019-04-04T14:13:37.255Z,12.83
2019-04-04T14:16:05.708Z,13.03
2019-04-04T14:18:39.790Z,12.43
2019-04-04T14:21:04.826Z,14.23
2019-04-04T14:23:33.398Z,12.50
2019-04-04T14:26:01.987Z,13.10
2019-04-04T14:28:30.453Z,12.67
2019-04-04T14:30:58.918Z,13.10
2019-04-04T14:33:46.719Z,12.77
2019-04-04T14:36:15.270Z,13.60
2019-04-04T14:38:52.434Z,14.70
2019-04-04T14:41:20.902Z,12.57
2019-04-04T14:43:49.438Z,13.10
2019-04-04T14:46:17.938Z,13.07
2019-04-04T14:48:46.395Z,12.90
2019-04-04T14:51:14.999Z,12.90
2019-04-04T14:53:43.548Z,14.40
2019-04-04T14:56:12.110Z,13.70
2019-04-04T14:58:40.831Z,14.17
2019-04-04T15:01:09.358Z,13.10
2019-04-04T15:03:37.841Z,14.10
2019-04-04T15:06:06.318Z,14.37
2019-04-04T15:08:34.828Z,13.27
2019-04-04T15:11:03.281Z,13.87
2019-04-04T15:13:31.727Z,14.00
2019-04-04T15:16:17.727Z,13.03
2019-04-04T15:18:46.995Z,13.20
2019-04-04T15:21:16.029Z,13.57
2019-04-04T15:23:44.951Z,14.97
2019-04-04T15:26:13.417Z,13.53
2019-04-04T15:28:41.908Z,13.67
2019-04-04T15:31:10.371Z,14.07
2019-04-04T15:33:38.883Z,13.07
2019-04-04T15:36:07.346Z,13.13
2019-04-04T15:38:38.456Z,12.63
2019-04-04T15:41:06.922Z,13.33
2019-04-04T15:43:35.386Z,13.53
2019-04-04T15:46:03.978Z,14.83
2019-04-04T15:48:32.479Z,12.97
2019-04-04T15:51:00.964Z,13.57
2019-04-04T15:53:29.590Z,12.67
2019-04-04T15:55:58.129Z,13.30
2019-04-04T15:58:45.975Z,11.90
2019-04-04T16:01:14.513Z,15.87
2019-04-04T16:03:43.051Z,15.47
2019-04-04T16:06:11.531Z,16.50
2019-04-04T16:08:39.989Z,17.50
2019-04-04T16:11:08.534Z,15.30
2019-04-04T16:13:37.207Z,13.87
2019-04-04T16:16:05.742Z,13.90
2019-04-04T16:18:34.277Z,13.50
2019-04-04T16:21:02.769Z,13.43
2019-04-04T16:23:31.246Z,13.07
2019-04-04T16:25:59.708Z,13.40
2019-04-04T16:28:28.198Z,12.80
2019-04-04T16:30:56.660Z,14.03
2019-04-04T16:33:26.898Z,12.27
2019-04-04T16:35:55.393Z,13.63
2019-04-04T16:38:23.854Z,12.97
2019-04-04T16:40:52.321Z,15.00
2019-04-04T16:43:23.201Z,19.93
2019-04-04T16:45:51.754Z,14.67
2019-04-04T16:48:20.223Z,14.43
2019-04-04T16:50:48.771Z,15.30
2019-04-04T16:53:17.228Z,14.33
2019-04-04T16:55:45.717Z,15.17
2019-04-04T16:58:14.246Z,15.93
2019-04-04T17:00:43.478Z,14.83
2019-04-04T17:03:11.942Z,16.17
2019-04-04T17:05:40.408Z,16.30
2019-04-04T17:08:08.951Z,21.10
2019-04-04T17:10:37.414Z,16.50
2019-04-04T17:13:05.877Z,15.53
2019-04-04T17:15:34.343Z,14.03
2019-04-04T17:18:02.940Z,14.97
2019-04-04T17:20:31.398Z,24.33
2019-04-04T17:22:59.867Z,45.53
2019-04-04T17:25:28.342Z,38.93
2019-04-04T17:27:57.291Z,19.93
2019-04-04T17:30:25.763Z,15.40
2019-04-04T17:32:54.326Z,22.70
2019-04-04T17:35:23.348Z,19.07
2019-04-04T17:37:51.971Z,18.07
2019-04-04T17:40:20.440Z,19.37
2019-04-04T17:42:49.730Z,17.00
2019-04-04T17:45:19.599Z,17.17
2019-04-04T17:47:48.780Z,16.57
2019-04-04T17:50:19.425Z,16.10
2019-04-04T17:52:48.291Z,17.17
2019-04-04T17:55:16.890Z,15.80
2019-04-04T17:57:45.521Z,14.43
2019-04-04T18:00:21.782Z,16.03
2019-04-04T18:02:50.243Z,15.60
2019-04-04T18:05:20.515Z,17.33
2019-04-04T18:07:49.093Z,17.30
2019-04-04T18:10:17.694Z,16.17
2019-04-04T18:12:46.154Z,15.83
2019-04-04T18:15:15.256Z,16.13
2019-04-04T18:17:43.720Z,15.40
2019-04-04T18:20:13.277Z,15.90
2019-04-04T18:22:41.759Z,16.80
2019-04-04T18:25:11.051Z,14.97
2019-04-04T18:27:42.408Z,15.03
2019-04-04T18:30:13.552Z,15.93
2019-04-04T18:32:42.043Z,15.70
2019-04-04T18:35:10.887Z,14.23
2019-04-04T18:37:39.402Z,14.93
2019-04-04T18:40:09.200Z,14.93
2019-04-04T18:42:37.735Z,15.60
2019-04-04T18:45:07.808Z,15.63
2019-04-04T18:47:36.461Z,13.77
2019-04-04T18:50:08.893Z,16.10
2019-04-04T18:52:37.354Z,12.87
2019-04-04T18:55:19.014Z,14.43
2019-04-04T18:57:37.935Z,14.67
2019-04-04T19:00:11.924Z,14.37
2019-04-04T19:02:41.199Z,12.27
2019-04-04T19:05:11.085Z,11.97
2019-04-04T19:07:40.041Z,14.07
2019-04-04T19:10:10.034Z,12.40
2019-04-04T19:12:38.556Z,13.50
2019-04-04T19:15:08.406Z,12.97
2019-04-04T19:17:36.900Z,14.80
2019-04-04T19:20:10.001Z,13.07
2019-04-04T19:22:38.139Z,12.43
2019-04-04T19:25:07.656Z,14.07
2019-04-04T19:27:36.321Z,14.50
2019-04-04T19:30:09.379Z,13.97
2019-04-04T19:32:37.941Z,11.93
2019-04-04T19:35:10.387Z,12.53
2019-04-04T19:37:38.971Z,12.07
2019-04-04T19:40:09.343Z,12.17
2019-04-04T19:42:37.958Z,11.73
2019-04-04T19:45:08.542Z,13.10
2019-04-04T19:47:37.068Z,13.60
2019-04-04T19:50:08.605Z,12.20
2019-04-04T19:52:38.078Z,16.63
2019-04-04T19:55:07.630Z,16.53
2019-04-04T19:57:36.165Z,18.63
2019-04-04T20:00:09.927Z,18.30
2019-04-04T20:02:38.455Z,17.90
2019-04-04T20:05:08.173Z,17.33
2019-04-04T20:07:36.722Z,15.67
2019-04-04T20:10:08.898Z,17.43
2019-04-04T20:12:37.407Z,15.90
2019-04-04T20:15:07.514Z,17.47
2019-04-04T20:17:35.963Z,16.60
2019-04-04T20:20:07.164Z,14.03
2019-04-04T20:22:35.685Z,13.73
2019-04-04T20:25:05.664Z,12.80
2019-04-04T20:27:34.128Z,11.07
2019-04-04T20:30:02.590Z,12.90
2019-04-04T20:32:31.066Z,12.10
2019-04-04T20:34:59.539Z,12.43
2019-04-04T20:37:28.077Z,12.23
2019-04-04T20:39:56.545Z,13.90
2019-04-04T20:42:25.190Z,12.30
2019-04-04T20:44:53.646Z,12.67
2019-04-04T20:47:22.113Z,12.10
2019-04-04T20:49:50.577Z,12.47
2019-04-04T20:52:19.057Z,12.13
2019-04-04T20:54:47.613Z,12.60
2019-04-04T20:57:16.146Z,12.17
2019-04-04T20:59:44.600Z,12.13
2019-04-04T21:02:13.061Z,13.30
2019-04-04T21:04:41.524Z,12.70
2019-04-04T21:07:09.986Z,16.33
2019-04-04T21:09:38.565Z,16.43
2019-04-04T21:12:07.137Z,15.83
2019-04-04T21:14:35.607Z,16.10
2019-04-04T21:17:04.183Z,16.47
2019-04-04T21:19:32.646Z,14.13
2019-04-04T21:22:01.113Z,15.10
2019-04-04T21:24:29.651Z,13.97
2019-04-04T21:26:58.199Z,14.90
2019-04-04T21:29:26.695Z,14.43
2019-04-04T21:31:55.160Z,13.73
2019-04-04T21:34:23.626Z,13.00
2019-04-04T21:36:52.122Z,13.13
2019-04-04T21:39:20.659Z,13.47
2019-04-04T21:41:49.104Z,12.87
2019-04-04T21:44:17.579Z,12.20
2019-04-04T21:46:46.035Z,12.13
2019-04-04T21:49:14.539Z,13.00
2019-04-04T21:51:43.028Z,13.23
2019-04-04T21:54:11.502Z,11.90
2019-04-04T21:56:39.975Z,12.73
2019-04-04T21:59:08.510Z,13.47
2019-04-04T22:01:37.341Z,14.07
2019-04-04T22:04:05.827Z,13.57
2019-04-04T22:06:34.275Z,14.33
2019-04-04T22:09:04.312Z,14.60
2019-04-04T22:11:32.786Z,13.63
2019-04-04T22:14:01.335Z,13.70
2019-04-04T22:16:29.802Z,12.70
2019-04-04T22:18:58.342Z,13.07
2019-04-04T22:21:27.433Z,13.07
2019-04-04T22:23:55.903Z,13.93
2019-04-04T22:26:24.444Z,14.10
2019-04-04T22:28:52.943Z,13.73
2019-04-04T22:31:21.517Z,12.30
2019-04-04T22:33:49.987Z,13.23
2019-04-04T22:36:18.545Z,13.27
2019-04-04T22:38:47.071Z,13.67
2019-04-04T22:41:15.563Z,12.97
2019-04-04T22:43:44.022Z,14.67
2019-04-04T22:46:12.483Z,13.43
2019-04-04T22:48:40.950Z,14.37
2019-04-04T22:51:09.402Z,14.67
2019-04-04T22:53:37.871Z,13.80
2019-04-04T22:56:06.330Z,13.90
2019-04-04T22:58:34.870Z,14.70
2019-04-04T23:01:03.317Z,13.80
2019-04-04T23:03:31.821Z,13.67
2019-04-04T23:06:00.278Z,13.60
2019-04-04T23:08:29.005Z,13.87
2019-04-04T23:10:57.487Z,13.00
2019-04-04T23:13:26.019Z,13.47
2019-04-04T23:15:54.493Z,13.30
2019-04-04T23:18:23.115Z,14.53
2019-04-04T23:20:51.650Z,14.30
2019-04-04T23:23:20.198Z,13.40
2019-04-04T23:25:48.935Z,14.00
2019-04-04T23:28:17.392Z,13.70
2019-04-04T23:30:45.864Z,13.13
2019-04-04T23:33:14.325Z,13.50
2019-04-04T23:35:42.811Z,13.20
2019-04-04T23:38:11.272Z,13.30
2019-04-04T23:40:39.816Z,12.43
2019-04-04T23:43:08.390Z,13.17
2019-04-04T23:45:36.855Z,13.50
2019-04-04T23:48:24.752Z,13.47
2019-04-04T23:50:53.202Z,14.37
2019-04-04T23:53:21.662Z,12.43
2019-04-04T23:55:50.128Z,13.57
2019-04-04T23:58:18.596Z,12.90
